sensor_id;sensor_type;location;lat;lon;timestamp;P1;durP1;ratioP1;P2;durP2;ratioP2
68214;SDS011;55036;52.138;5.236;2023-12-04T00:01:59;19.80;;;10.73;;
68214;SDS011;55036;52.138;5.236;2023-12-04T00:04:26;19.92;;;9.35;;
68214;SDS011;55036;52.138;5.236;2023-12-04T00:06:53;20.40;;;10.25;;
68214;SDS011;55036;52.138;5.236;2023-12-04T00:09:20;18.85;;;9.68;;
68214;SDS011;55036;52.138;5.236;2023-12-04T00:11:47;20.30;;;10.43;;
68214;SDS011;55036;52.138;5.236;2023-12-04T00:14:14;21.52;;;9.90;;
68214;SDS011;55036;52.138;5.236;2023-12-04T00:16:40;21.23;;;10.98;;
68214;SDS011;55036;52.138;5.236;2023-12-04T00:19:07;18.88;;;9.95;;
68214;SDS011;55036;52.138;5.236;2023-12-04T00:21:35;18.77;;;9.85;;
68214;SDS011;55036;52.138;5.236;2023-12-04T00:24:01;23.35;;;10.68;;
68214;SDS011;55036;52.138;5.236;2023-12-04T00:26:29;18.05;;;10.35;;
68214;SDS011;55036;52.138;5.236;2023-12-04T00:28:56;21.23;;;9.32;;
68214;SDS011;55036;52.138;5.236;2023-12-04T00:31:23;20.08;;;10.00;;
68214;SDS011;55036;52.138;5.236;2023-12-04T00:33:50;18.25;;;9.82;;
68214;SDS011;55036;52.138;5.236;2023-12-04T00:36:17;20.13;;;10.38;;
68214;SDS011;55036;52.138;5.236;2023-12-04T00:38:45;20.83;;;10.10;;
68214;SDS011;55036;52.138;5.236;2023-12-04T00:41:12;20.52;;;9.95;;
68214;SDS011;55036;52.138;5.236;2023-12-04T01:19:12;20.77;;;9.88;;
68214;SDS011;55036;52.138;5.236;2023-12-04T01:21:39;22.65;;;10.63;;
68214;SDS011;55036;52.138;5.236;2023-12-04T01:24:05;20.10;;;10.18;;
68214;SDS011;55036;52.138;5.236;2023-12-04T01:26:32;22.08;;;10.27;;
68214;SDS011;55036;52.138;5.236;2023-12-04T01:28:59;22.73;;;10.05;;
68214;SDS011;55036;52.138;5.236;2023-12-04T01:31:26;22.45;;;11.35;;
68214;SDS011;55036;52.138;5.236;2023-12-04T01:33:52;23.00;;;11.00;;
68214;SDS011;55036;52.138;5.236;2023-12-04T01:36:19;22.73;;;10.43;;
68214;SDS011;55036;52.138;5.236;2023-12-04T01:38:47;24.33;;;11.32;;
68214;SDS011;55036;52.138;5.236;2023-12-04T01:41:14;22.50;;;10.95;;
68214;SDS011;55036;52.138;5.236;2023-12-04T01:43:40;15.93;;;7.80;;
68214;SDS011;55036;52.138;5.236;2023-12-04T01:46:07;25.33;;;10.93;;
68214;SDS011;55036;52.138;5.236;2023-12-04T01:48:34;20.83;;;11.02;;
68214;SDS011;55036;52.138;5.236;2023-12-04T01:51:04;24.85;;;11.30;;
68214;SDS011;55036;52.138;5.236;2023-12-04T01:53:34;21.67;;;10.27;;
68214;SDS011;55036;52.138;5.236;2023-12-04T01:56:02;21.27;;;9.85;;
68214;SDS011;55036;52.138;5.236;2023-12-04T01:58:29;23.55;;;11.20;;
68214;SDS011;55036;52.138;5.236;2023-12-04T02:00:56;20.92;;;10.15;;
68214;SDS011;55036;52.138;5.236;2023-12-04T02:03:23;22.88;;;11.35;;
68214;SDS011;55036;52.138;5.236;2023-12-04T02:05:51;20.75;;;10.65;;
68214;SDS011;55036;52.138;5.236;2023-12-04T02:08:18;23.05;;;10.60;;
68214;SDS011;55036;52.138;5.236;2023-12-04T02:10:45;24.10;;;12.20;;
68214;SDS011;55036;52.138;5.236;2023-12-04T02:13:12;23.15;;;11.05;;
68214;SDS011;55036;52.138;5.236;2023-12-04T02:15:39;21.80;;;11.02;;
68214;SDS011;55036;52.138;5.236;2023-12-04T02:18:05;19.25;;;10.73;;
68214;SDS011;55036;52.138;5.236;2023-12-04T02:20:33;22.42;;;12.30;;
68214;SDS011;55036;52.138;5.236;2023-12-04T02:23:03;22.83;;;10.75;;
68214;SDS011;55036;52.138;5.236;2023-12-04T02:25:30;24.13;;;11.68;;
68214;SDS011;55036;52.138;5.236;2023-12-04T02:28:05;24.08;;;12.52;;
68214;SDS011;55036;52.138;5.236;2023-12-04T02:30:34;24.40;;;10.07;;
68214;SDS011;55036;52.138;5.236;2023-12-04T02:33:05;22.15;;;10.90;;
68214;SDS011;55036;52.138;5.236;2023-12-04T02:35:34;25.15;;;12.10;;
68214;SDS011;55036;52.138;5.236;2023-12-04T02:38:02;23.23;;;11.00;;
68214;SDS011;55036;52.138;5.236;2023-12-04T02:40:29;22.85;;;11.18;;
68214;SDS011;55036;52.138;5.236;2023-12-04T02:42:56;22.00;;;11.38;;
68214;SDS011;55036;52.138;5.236;2023-12-04T02:45:24;29.45;;;12.57;;
68214;SDS011;55036;52.138;5.236;2023-12-04T02:47:50;24.20;;;11.40;;
68214;SDS011;55036;52.138;5.236;2023-12-04T02:50:17;19.70;;;10.40;;
68214;SDS011;55036;52.138;5.236;2023-12-04T02:52:44;21.77;;;11.45;;
68214;SDS011;55036;52.138;5.236;2023-12-04T02:55:11;23.25;;;11.45;;
68214;SDS011;55036;52.138;5.236;2023-12-04T02:57:37;21.88;;;12.30;;
68214;SDS011;55036;52.138;5.236;2023-12-04T03:00:04;23.40;;;12.38;;
68214;SDS011;55036;52.138;5.236;2023-12-04T03:02:32;23.02;;;11.40;;
68214;SDS011;55036;52.138;5.236;2023-12-04T03:04:59;20.20;;;11.02;;
68214;SDS011;55036;52.138;5.236;2023-12-04T03:07:26;22.80;;;11.20;;
68214;SDS011;55036;52.138;5.236;2023-12-04T03:09:53;22.80;;;11.40;;
68214;SDS011;55036;52.138;5.236;2023-12-04T03:12:20;18.20;;;9.35;;
68214;SDS011;55036;52.138;5.236;2023-12-04T03:14:46;25.80;;;10.23;;
68214;SDS011;55036;52.138;5.236;2023-12-04T03:17:13;22.63;;;11.95;;
68214;SDS011;55036;52.138;5.236;2023-12-04T03:19:40;20.63;;;11.27;;
68214;SDS011;55036;52.138;5.236;2023-12-04T03:22:07;21.48;;;10.18;;
68214;SDS011;55036;52.138;5.236;2023-12-04T03:24:34;25.40;;;11.18;;
68214;SDS011;55036;52.138;5.236;2023-12-04T03:27:01;19.23;;;9.13;;
68214;SDS011;55036;52.138;5.236;2023-12-04T03:29:28;21.58;;;10.77;;
68214;SDS011;55036;52.138;5.236;2023-12-04T03:31:55;18.13;;;9.50;;
68214;SDS011;55036;52.138;5.236;2023-12-04T03:34:22;21.63;;;12.23;;
68214;SDS011;55036;52.138;5.236;2023-12-04T03:36:49;20.65;;;9.30;;
68214;SDS011;55036;52.138;5.236;2023-12-04T03:39:16;22.42;;;11.25;;
68214;SDS011;55036;52.138;5.236;2023-12-04T03:41:43;23.23;;;10.90;;
68214;SDS011;55036;52.138;5.236;2023-12-04T03:44:09;19.58;;;10.63;;
68214;SDS011;55036;52.138;5.236;2023-12-04T03:46:36;24.38;;;11.15;;
68214;SDS011;55036;52.138;5.236;2023-12-04T03:49:04;24.50;;;11.00;;
68214;SDS011;55036;52.138;5.236;2023-12-04T03:51:31;20.73;;;10.32;;
68214;SDS011;55036;52.138;5.236;2023-12-04T03:53:58;23.23;;;11.10;;
68214;SDS011;55036;52.138;5.236;2023-12-04T03:56:25;19.95;;;9.65;;
68214;SDS011;55036;52.138;5.236;2023-12-04T03:58:53;19.65;;;10.63;;
68214;SDS011;55036;52.138;5.236;2023-12-04T04:01:19;15.73;;;9.13;;
68214;SDS011;55036;52.138;5.236;2023-12-04T04:03:46;23.30;;;10.52;;
68214;SDS011;55036;52.138;5.236;2023-12-04T04:06:13;12.55;;;6.40;;
68214;SDS011;55036;52.138;5.236;2023-12-04T04:08:39;19.73;;;9.20;;
68214;SDS011;55036;52.138;5.236;2023-12-04T04:11:07;20.23;;;10.32;;
68214;SDS011;55036;52.138;5.236;2023-12-04T04:13:33;18.50;;;8.18;;
68214;SDS011;55036;52.138;5.236;2023-12-04T04:16:00;19.30;;;9.23;;
68214;SDS011;55036;52.138;5.236;2023-12-04T04:18:27;17.92;;;9.25;;
68214;SDS011;55036;52.138;5.236;2023-12-04T04:20:54;21.30;;;10.98;;
68214;SDS011;55036;52.138;5.236;2023-12-04T04:23:21;17.30;;;9.63;;
68214;SDS011;55036;52.138;5.236;2023-12-04T04:25:47;19.13;;;9.82;;
68214;SDS011;55036;52.138;5.236;2023-12-04T04:28:14;21.95;;;10.48;;
68214;SDS011;55036;52.138;5.236;2023-12-04T04:30:41;16.20;;;9.00;;
68214;SDS011;55036;52.138;5.236;2023-12-04T04:33:08;20.25;;;9.52;;
68214;SDS011;55036;52.138;5.236;2023-12-04T04:35:34;19.38;;;10.07;;
68214;SDS011;55036;52.138;5.236;2023-12-04T04:38:01;20.85;;;9.48;;
68214;SDS011;55036;52.138;5.236;2023-12-04T04:40:28;19.08;;;9.60;;
68214;SDS011;55036;52.138;5.236;2023-12-04T04:42:55;19.85;;;9.82;;
68214;SDS011;55036;52.138;5.236;2023-12-04T04:45:22;20.38;;;8.90;;
68214;SDS011;55036;52.138;5.236;2023-12-04T04:47:48;19.35;;;9.50;;
68214;SDS011;55036;52.138;5.236;2023-12-04T04:50:15;17.02;;;9.48;;
68214;SDS011;55036;52.138;5.236;2023-12-04T04:52:42;20.42;;;10.18;;
68214;SDS011;55036;52.138;5.236;2023-12-04T04:55:09;17.42;;;8.38;;
68214;SDS011;55036;52.138;5.236;2023-12-04T04:57:36;17.83;;;8.93;;
68214;SDS011;55036;52.138;5.236;2023-12-04T05:00:03;15.80;;;7.30;;
68214;SDS011;55036;52.138;5.236;2023-12-04T05:02:30;16.23;;;8.60;;
68214;SDS011;55036;52.138;5.236;2023-12-04T05:04:57;16.02;;;8.55;;
68214;SDS011;55036;52.138;5.236;2023-12-04T05:07:24;15.10;;;8.75;;
68214;SDS011;55036;52.138;5.236;2023-12-04T05:09:50;15.98;;;9.15;;
68214;SDS011;55036;52.138;5.236;2023-12-04T05:12:17;13.00;;;7.22;;
68214;SDS011;55036;52.138;5.236;2023-12-04T05:14:44;19.55;;;9.68;;
68214;SDS011;55036;52.138;5.236;2023-12-04T05:17:11;14.82;;;7.90;;
68214;SDS011;55036;52.138;5.236;2023-12-04T05:19:37;16.15;;;8.93;;
68214;SDS011;55036;52.138;5.236;2023-12-04T05:22:04;16.95;;;8.55;;
68214;SDS011;55036;52.138;5.236;2023-12-04T05:24:31;14.88;;;9.32;;
68214;SDS011;55036;52.138;5.236;2023-12-04T05:26:58;17.30;;;9.02;;
68214;SDS011;55036;52.138;5.236;2023-12-04T05:29:24;15.60;;;8.90;;
68214;SDS011;55036;52.138;5.236;2023-12-04T05:31:51;19.88;;;8.63;;
68214;SDS011;55036;52.138;5.236;2023-12-04T05:34:18;19.58;;;10.05;;
68214;SDS011;55036;52.138;5.236;2023-12-04T05:36:45;19.52;;;9.00;;
68214;SDS011;55036;52.138;5.236;2023-12-04T05:39:11;15.10;;;8.95;;
68214;SDS011;55036;52.138;5.236;2023-12-04T05:41:38;15.25;;;8.10;;
68214;SDS011;55036;52.138;5.236;2023-12-04T05:44:05;10.60;;;6.45;;
68214;SDS011;55036;52.138;5.236;2023-12-04T05:46:31;17.88;;;9.55;;
68214;SDS011;55036;52.138;5.236;2023-12-04T05:48:58;16.60;;;8.52;;
68214;SDS011;55036;52.138;5.236;2023-12-04T05:51:25;16.45;;;8.75;;
68214;SDS011;55036;52.138;5.236;2023-12-04T05:53:52;14.88;;;8.15;;
68214;SDS011;55036;52.138;5.236;2023-12-04T05:56:19;15.85;;;9.27;;
68214;SDS011;55036;52.138;5.236;2023-12-04T05:58:46;17.20;;;8.98;;
68214;SDS011;55036;52.138;5.236;2023-12-04T06:01:14;13.77;;;7.88;;
68214;SDS011;55036;52.138;5.236;2023-12-04T06:03:41;14.70;;;8.32;;
68214;SDS011;55036;52.138;5.236;2023-12-04T06:06:08;16.13;;;8.80;;
68214;SDS011;55036;52.138;5.236;2023-12-04T06:08:34;14.90;;;8.20;;
68214;SDS011;55036;52.138;5.236;2023-12-04T06:11:01;14.10;;;8.43;;
68214;SDS011;55036;52.138;5.236;2023-12-04T06:13:28;14.65;;;8.23;;
68214;SDS011;55036;52.138;5.236;2023-12-04T06:15:55;14.68;;;7.70;;
68214;SDS011;55036;52.138;5.236;2023-12-04T06:18:22;14.32;;;8.80;;
68214;SDS011;55036;52.138;5.236;2023-12-04T06:20:50;14.15;;;8.48;;
68214;SDS011;55036;52.138;5.236;2023-12-04T06:23:17;13.00;;;7.70;;
68214;SDS011;55036;52.138;5.236;2023-12-04T06:25:45;15.38;;;8.80;;
68214;SDS011;55036;52.138;5.236;2023-12-04T06:28:12;15.15;;;8.38;;
68214;SDS011;55036;52.138;5.236;2023-12-04T06:30:39;13.40;;;7.75;;
68214;SDS011;55036;52.138;5.236;2023-12-04T06:33:07;11.70;;;6.18;;
68214;SDS011;55036;52.138;5.236;2023-12-04T06:35:34;11.80;;;6.72;;
68214;SDS011;55036;52.138;5.236;2023-12-04T06:38:05;15.70;;;8.20;;
68214;SDS011;55036;52.138;5.236;2023-12-04T06:40:33;13.32;;;7.55;;
68214;SDS011;55036;52.138;5.236;2023-12-04T06:43:00;13.27;;;7.45;;
68214;SDS011;55036;52.138;5.236;2023-12-04T06:45:27;9.30;;;5.68;;
68214;SDS011;55036;52.138;5.236;2023-12-04T06:47:54;14.63;;;8.68;;
68214;SDS011;55036;52.138;5.236;2023-12-04T06:50:22;11.43;;;5.88;;
68214;SDS011;55036;52.138;5.236;2023-12-04T06:52:49;12.38;;;7.63;;
68214;SDS011;55036;52.138;5.236;2023-12-04T06:55:16;11.40;;;7.38;;
68214;SDS011;55036;52.138;5.236;2023-12-04T06:57:43;12.68;;;7.05;;
68214;SDS011;55036;52.138;5.236;2023-12-04T07:00:10;13.25;;;7.10;;
68214;SDS011;55036;52.138;5.236;2023-12-04T07:02:47;11.27;;;7.43;;
68214;SDS011;55036;52.138;5.236;2023-12-04T07:05:16;12.88;;;7.32;;
68214;SDS011;55036;52.138;5.236;2023-12-04T07:07:43;13.90;;;7.20;;
68214;SDS011;55036;52.138;5.236;2023-12-04T07:10:10;14.32;;;8.13;;
68214;SDS011;55036;52.138;5.236;2023-12-04T07:12:41;12.60;;;7.57;;
68214;SDS011;55036;52.138;5.236;2023-12-04T07:15:08;11.45;;;7.20;;
68214;SDS011;55036;52.138;5.236;2023-12-04T07:17:37;13.40;;;8.02;;
68214;SDS011;55036;52.138;5.236;2023-12-04T07:20:06;16.02;;;8.30;;
68214;SDS011;55036;52.138;5.236;2023-12-04T07:22:33;12.25;;;6.68;;
68214;SDS011;55036;52.138;5.236;2023-12-04T07:25:04;10.63;;;6.13;;
68214;SDS011;55036;52.138;5.236;2023-12-04T07:27:33;12.27;;;7.05;;
68214;SDS011;55036;52.138;5.236;2023-12-04T07:30:01;12.25;;;6.75;;
68214;SDS011;55036;52.138;5.236;2023-12-04T07:32:29;12.60;;;6.82;;
68214;SDS011;55036;52.138;5.236;2023-12-04T07:34:56;11.82;;;7.30;;
68214;SDS011;55036;52.138;5.236;2023-12-04T07:37:25;12.55;;;7.65;;
68214;SDS011;55036;52.138;5.236;2023-12-04T07:39:51;16.25;;;6.72;;
68214;SDS011;55036;52.138;5.236;2023-12-04T07:42:18;13.48;;;7.72;;
68214;SDS011;55036;52.138;5.236;2023-12-04T07:44:45;12.88;;;7.03;;
68214;SDS011;55036;52.138;5.236;2023-12-04T07:47:13;13.15;;;7.32;;
68214;SDS011;55036;52.138;5.236;2023-12-04T07:49:40;11.35;;;6.80;;
68214;SDS011;55036;52.138;5.236;2023-12-04T07:52:08;11.23;;;6.18;;
68214;SDS011;55036;52.138;5.236;2023-12-04T07:54:35;11.88;;;7.50;;
68214;SDS011;55036;52.138;5.236;2023-12-04T07:57:02;13.70;;;7.30;;
68214;SDS011;55036;52.138;5.236;2023-12-04T07:59:29;10.65;;;6.53;;
68214;SDS011;55036;52.138;5.236;2023-12-04T08:01:57;10.88;;;6.57;;
68214;SDS011;55036;52.138;5.236;2023-12-04T08:04:23;11.10;;;6.60;;
68214;SDS011;55036;52.138;5.236;2023-12-04T08:06:50;10.77;;;6.32;;
68214;SDS011;55036;52.138;5.236;2023-12-04T08:09:17;9.93;;;5.35;;
68214;SDS011;55036;52.138;5.236;2023-12-04T08:11:44;9.23;;;4.95;;
68214;SDS011;55036;52.138;5.236;2023-12-04T08:14:11;11.10;;;6.47;;
68214;SDS011;55036;52.138;5.236;2023-12-04T08:16:38;10.38;;;5.68;;
68214;SDS011;55036;52.138;5.236;2023-12-04T08:19:05;11.38;;;6.82;;
68214;SDS011;55036;52.138;5.236;2023-12-04T08:21:32;9.93;;;6.70;;
68214;SDS011;55036;52.138;5.236;2023-12-04T08:23:59;9.88;;;5.93;;
68214;SDS011;55036;52.138;5.236;2023-12-04T08:26:26;8.80;;;5.75;;
68214;SDS011;55036;52.138;5.236;2023-12-04T08:28:53;8.52;;;5.68;;
68214;SDS011;55036;52.138;5.236;2023-12-04T08:31:20;10.35;;;6.13;;
68214;SDS011;55036;52.138;5.236;2023-12-04T08:33:46;11.38;;;6.15;;
68214;SDS011;55036;52.138;5.236;2023-12-04T08:36:13;10.43;;;5.93;;
68214;SDS011;55036;52.138;5.236;2023-12-04T08:38:40;9.52;;;5.72;;
68214;SDS011;55036;52.138;5.236;2023-12-04T08:41:07;8.82;;;5.97;;
68214;SDS011;55036;52.138;5.236;2023-12-04T08:43:33;13.13;;;6.53;;
68214;SDS011;55036;52.138;5.236;2023-12-04T08:46:00;10.40;;;6.10;;
68214;SDS011;55036;52.138;5.236;2023-12-04T08:48:27;7.88;;;4.05;;
68214;SDS011;55036;52.138;5.236;2023-12-04T08:50:54;10.25;;;5.85;;
68214;SDS011;55036;52.138;5.236;2023-12-04T08:53:21;9.55;;;5.65;;
68214;SDS011;55036;52.138;5.236;2023-12-04T08:55:47;7.82;;;5.30;;
68214;SDS011;55036;52.138;5.236;2023-12-04T08:58:14;9.00;;;5.93;;
68214;SDS011;55036;52.138;5.236;2023-12-04T09:00:41;11.02;;;5.57;;
68214;SDS011;55036;52.138;5.236;2023-12-04T09:03:09;9.13;;;5.25;;
68214;SDS011;55036;52.138;5.236;2023-12-04T09:05:47;9.75;;;5.30;;
68214;SDS011;55036;52.138;5.236;2023-12-04T09:08:17;9.27;;;5.30;;
68214;SDS011;55036;52.138;5.236;2023-12-04T09:11:02;10.82;;;5.57;;
68214;SDS011;55036;52.138;5.236;2023-12-04T09:13:34;8.50;;;5.13;;
68214;SDS011;55036;52.138;5.236;2023-12-04T09:16:01;10.00;;;4.47;;
68214;SDS011;55036;52.138;5.236;2023-12-04T09:18:28;9.07;;;5.50;;
68214;SDS011;55036;52.138;5.236;2023-12-04T09:20:55;8.32;;;5.40;;
68214;SDS011;55036;52.138;5.236;2023-12-04T09:23:22;7.28;;;4.32;;
68214;SDS011;55036;52.138;5.236;2023-12-04T09:25:50;7.82;;;4.45;;
68214;SDS011;55036;52.138;5.236;2023-12-04T09:28:17;8.18;;;4.82;;
68214;SDS011;55036;52.138;5.236;2023-12-04T09:30:44;10.57;;;4.68;;
68214;SDS011;55036;52.138;5.236;2023-12-04T09:33:11;6.57;;;4.22;;
68214;SDS011;55036;52.138;5.236;2023-12-04T09:35:38;5.97;;;3.17;;
68214;SDS011;55036;52.138;5.236;2023-12-04T09:38:04;9.43;;;5.00;;
68214;SDS011;55036;52.138;5.236;2023-12-04T09:40:32;8.80;;;4.68;;
68214;SDS011;55036;52.138;5.236;2023-12-04T09:42:58;10.00;;;4.95;;
68214;SDS011;55036;52.138;5.236;2023-12-04T09:45:25;10.68;;;5.18;;
68214;SDS011;55036;52.138;5.236;2023-12-04T09:47:54;8.93;;;4.93;;
68214;SDS011;55036;52.138;5.236;2023-12-04T09:50:22;8.13;;;4.82;;
68214;SDS011;55036;52.138;5.236;2023-12-04T09:52:49;8.65;;;5.40;;
68214;SDS011;55036;52.138;5.236;2023-12-04T09:55:16;7.88;;;4.32;;
68214;SDS011;55036;52.138;5.236;2023-12-04T09:57:44;8.02;;;5.00;;
68214;SDS011;55036;52.138;5.236;2023-12-04T10:00:15;6.88;;;4.00;;
68214;SDS011;55036;52.138;5.236;2023-12-04T10:02:42;7.35;;;4.28;;
68214;SDS011;55036;52.138;5.236;2023-12-04T10:05:09;6.47;;;3.65;;
68214;SDS011;55036;52.138;5.236;2023-12-04T10:07:36;8.38;;;5.05;;
68214;SDS011;55036;52.138;5.236;2023-12-04T10:10:04;9.90;;;5.30;;
68214;SDS011;55036;52.138;5.236;2023-12-04T10:12:32;9.05;;;4.40;;
68214;SDS011;55036;52.138;5.236;2023-12-04T10:17:34;8.27;;;5.50;;
68214;SDS011;55036;52.138;5.236;2023-12-04T10:20:06;10.15;;;5.13;;
68214;SDS011;55036;52.138;5.236;2023-12-04T10:22:39;9.02;;;5.30;;
68214;SDS011;55036;52.138;5.236;2023-12-04T10:25:17;6.93;;;4.70;;
68214;SDS011;55036;52.138;5.236;2023-12-04T10:27:47;8.23;;;5.07;;
68214;SDS011;55036;52.138;5.236;2023-12-04T10:30:24;10.50;;;6.03;;
68214;SDS011;55036;52.138;5.236;2023-12-04T10:32:56;6.50;;;4.47;;
68214;SDS011;55036;52.138;5.236;2023-12-04T10:35:31;8.77;;;4.88;;
68214;SDS011;55036;52.138;5.236;2023-12-04T10:38:03;9.20;;;5.05;;
68214;SDS011;55036;52.138;5.236;2023-12-04T10:40:32;6.10;;;3.72;;
68214;SDS011;55036;52.138;5.236;2023-12-04T10:43:10;8.07;;;4.97;;
68214;SDS011;55036;52.138;5.236;2023-12-04T10:45:37;8.15;;;5.00;;
68214;SDS011;55036;52.138;5.236;2023-12-04T10:48:06;8.93;;;4.90;;
68214;SDS011;55036;52.138;5.236;2023-12-04T10:50:34;9.95;;;5.72;;
68214;SDS011;55036;52.138;5.236;2023-12-04T10:53:07;8.13;;;5.20;;
68214;SDS011;55036;52.138;5.236;2023-12-04T10:55:35;7.43;;;4.40;;
68214;SDS011;55036;52.138;5.236;2023-12-04T10:58:07;7.55;;;4.88;;
68214;SDS011;55036;52.138;5.236;2023-12-04T11:03:10;8.75;;;5.40;;
68214;SDS011;55036;52.138;5.236;2023-12-04T11:05:44;8.98;;;5.28;;
68214;SDS011;55036;52.138;5.236;2023-12-04T11:08:13;6.50;;;3.90;;
68214;SDS011;55036;52.138;5.236;2023-12-04T11:13:29;8.73;;;4.88;;
68214;SDS011;55036;52.138;5.236;2023-12-04T11:16:02;8.60;;;5.72;;
68214;SDS011;55036;52.138;5.236;2023-12-04T11:18:42;7.32;;;5.20;;
68214;SDS011;55036;52.138;5.236;2023-12-04T11:21:11;10.07;;;5.78;;
68214;SDS011;55036;52.138;5.236;2023-12-04T11:23:40;10.20;;;5.78;;
68214;SDS011;55036;52.138;5.236;2023-12-04T11:26:08;8.48;;;5.10;;
68214;SDS011;55036;52.138;5.236;2023-12-04T11:28:35;12.45;;;5.50;;
68214;SDS011;55036;52.138;5.236;2023-12-04T11:31:04;9.27;;;5.43;;
68214;SDS011;55036;52.138;5.236;2023-12-04T11:33:38;9.82;;;5.80;;
68214;SDS011;55036;52.138;5.236;2023-12-04T11:36:06;9.35;;;5.40;;
68214;SDS011;55036;52.138;5.236;2023-12-04T11:38:38;9.32;;;4.57;;
68214;SDS011;55036;52.138;5.236;2023-12-04T11:41:17;8.65;;;5.72;;
68214;SDS011;55036;52.138;5.236;2023-12-04T11:43:52;10.25;;;5.65;;
68214;SDS011;55036;52.138;5.236;2023-12-04T11:46:22;10.52;;;5.82;;
68214;SDS011;55036;52.138;5.236;2023-12-04T11:48:53;11.02;;;6.95;;
68214;SDS011;55036;52.138;5.236;2023-12-04T11:54:13;11.05;;;6.45;;
68214;SDS011;55036;52.138;5.236;2023-12-04T11:57:00;10.15;;;6.05;;
68214;SDS011;55036;52.138;5.236;2023-12-04T11:59:27;12.77;;;6.78;;
68214;SDS011;55036;52.138;5.236;2023-12-04T12:01:54;8.63;;;5.75;;
68214;SDS011;55036;52.138;5.236;2023-12-04T12:04:25;11.63;;;7.03;;
68214;SDS011;55036;52.138;5.236;2023-12-04T12:06:54;9.13;;;5.40;;
68214;SDS011;55036;52.138;5.236;2023-12-04T12:09:21;10.13;;;5.97;;
68214;SDS011;55036;52.138;5.236;2023-12-04T12:11:49;10.68;;;6.45;;
68214;SDS011;55036;52.138;5.236;2023-12-04T12:14:19;11.45;;;5.78;;
68214;SDS011;55036;52.138;5.236;2023-12-04T12:16:47;9.90;;;6.18;;
68214;SDS011;55036;52.138;5.236;2023-12-04T12:19:14;6.57;;;3.95;;
68214;SDS011;55036;52.138;5.236;2023-12-04T12:21:41;11.68;;;6.35;;
68214;SDS011;55036;52.138;5.236;2023-12-04T12:24:08;10.48;;;6.07;;
68214;SDS011;55036;52.138;5.236;2023-12-04T12:26:39;12.85;;;7.25;;
68214;SDS011;55036;52.138;5.236;2023-12-04T12:29:05;10.65;;;6.30;;
68214;SDS011;55036;52.138;5.236;2023-12-04T12:31:33;6.22;;;3.92;;
68214;SDS011;55036;52.138;5.236;2023-12-04T12:33:59;6.88;;;4.15;;
68214;SDS011;55036;52.138;5.236;2023-12-04T12:36:26;9.05;;;5.68;;
68214;SDS011;55036;52.138;5.236;2023-12-04T12:38:53;8.20;;;5.65;;
68214;SDS011;55036;52.138;5.236;2023-12-04T12:41:20;11.15;;;6.10;;
68214;SDS011;55036;52.138;5.236;2023-12-04T12:43:50;8.95;;;5.70;;
68214;SDS011;55036;52.138;5.236;2023-12-04T12:46:18;9.87;;;6.37;;
68214;SDS011;55036;52.138;5.236;2023-12-04T12:48:46;10.88;;;6.85;;
68214;SDS011;55036;52.138;5.236;2023-12-04T12:51:13;9.65;;;6.03;;
68214;SDS011;55036;52.138;5.236;2023-12-04T12:53:40;12.65;;;7.05;;
68214;SDS011;55036;52.138;5.236;2023-12-04T12:56:16;11.50;;;6.68;;
68214;SDS011;55036;52.138;5.236;2023-12-04T12:58:43;10.80;;;6.20;;
68214;SDS011;55036;52.138;5.236;2023-12-04T13:01:10;10.50;;;6.78;;
68214;SDS011;55036;52.138;5.236;2023-12-04T13:03:38;12.88;;;6.70;;
68214;SDS011;55036;52.138;5.236;2023-12-04T13:06:05;13.55;;;6.82;;
68214;SDS011;55036;52.138;5.236;2023-12-04T13:08:32;10.32;;;6.57;;
68214;SDS011;55036;52.138;5.236;2023-12-04T13:10:58;8.70;;;5.32;;
68214;SDS011;55036;52.138;5.236;2023-12-04T13:13:25;12.48;;;7.85;;
68214;SDS011;55036;52.138;5.236;2023-12-04T13:15:53;11.80;;;6.70;;
68214;SDS011;55036;52.138;5.236;2023-12-04T13:18:20;14.57;;;8.63;;
68214;SDS011;55036;52.138;5.236;2023-12-04T13:20:47;11.05;;;7.30;;
68214;SDS011;55036;52.138;5.236;2023-12-04T13:23:14;12.07;;;7.78;;
68214;SDS011;55036;52.138;5.236;2023-12-04T13:25:41;11.60;;;7.03;;
68214;SDS011;55036;52.138;5.236;2023-12-04T13:28:10;10.10;;;5.68;;
68214;SDS011;55036;52.138;5.236;2023-12-04T13:30:52;13.38;;;7.43;;
68214;SDS011;55036;52.138;5.236;2023-12-04T13:33:19;12.25;;;8.00;;
68214;SDS011;55036;52.138;5.236;2023-12-04T13:35:46;12.98;;;7.70;;
68214;SDS011;55036;52.138;5.236;2023-12-04T13:38:13;12.30;;;7.25;;
68214;SDS011;55036;52.138;5.236;2023-12-04T13:40:49;15.48;;;7.82;;
68214;SDS011;55036;52.138;5.236;2023-12-04T13:43:26;13.80;;;8.18;;
68214;SDS011;55036;52.138;5.236;2023-12-04T13:46:12;13.02;;;7.88;;
68214;SDS011;55036;52.138;5.236;2023-12-04T13:48:38;16.92;;;8.70;;
68214;SDS011;55036;52.138;5.236;2023-12-04T13:51:08;16.02;;;7.72;;
68214;SDS011;55036;52.138;5.236;2023-12-04T13:53:36;15.30;;;8.05;;
68214;SDS011;55036;52.138;5.236;2023-12-04T13:56:11;10.93;;;6.93;;
68214;SDS011;55036;52.138;5.236;2023-12-04T13:58:50;13.73;;;8.52;;
68214;SDS011;55036;52.138;5.236;2023-12-04T14:01:23;16.02;;;8.48;;
68214;SDS011;55036;52.138;5.236;2023-12-04T14:03:52;12.50;;;7.45;;
68214;SDS011;55036;52.138;5.236;2023-12-04T14:06:19;13.52;;;7.07;;
68214;SDS011;55036;52.138;5.236;2023-12-04T14:08:47;14.85;;;8.45;;
68214;SDS011;55036;52.138;5.236;2023-12-04T14:11:14;15.55;;;6.93;;
68214;SDS011;55036;52.138;5.236;2023-12-04T14:13:41;14.27;;;8.52;;
68214;SDS011;55036;52.138;5.236;2023-12-04T14:16:08;12.45;;;7.80;;
68214;SDS011;55036;52.138;5.236;2023-12-04T14:18:35;12.68;;;7.47;;
68214;SDS011;55036;52.138;5.236;2023-12-04T14:21:02;13.30;;;8.25;;
68214;SDS011;55036;52.138;5.236;2023-12-04T14:23:29;12.98;;;8.40;;
68214;SDS011;55036;52.138;5.236;2023-12-04T14:25:56;14.18;;;8.20;;
68214;SDS011;55036;52.138;5.236;2023-12-04T14:28:23;11.65;;;7.35;;
68214;SDS011;55036;52.138;5.236;2023-12-04T14:30:58;10.52;;;4.90;;
68214;SDS011;55036;52.138;5.236;2023-12-04T14:33:24;14.65;;;7.53;;
68214;SDS011;55036;52.138;5.236;2023-12-04T14:35:51;13.05;;;7.82;;
68214;SDS011;55036;52.138;5.236;2023-12-04T14:38:19;8.25;;;5.57;;
68214;SDS011;55036;52.138;5.236;2023-12-04T14:40:45;10.63;;;6.13;;
68214;SDS011;55036;52.138;5.236;2023-12-04T14:43:12;14.43;;;7.70;;
68214;SDS011;55036;52.138;5.236;2023-12-04T14:45:39;9.43;;;6.57;;
68214;SDS011;55036;52.138;5.236;2023-12-04T14:48:06;14.13;;;8.20;;
68214;SDS011;55036;52.138;5.236;2023-12-04T14:50:34;12.32;;;6.57;;
68214;SDS011;55036;52.138;5.236;2023-12-04T14:53:05;14.85;;;8.48;;
68214;SDS011;55036;52.138;5.236;2023-12-04T14:55:50;10.88;;;6.60;;
68214;SDS011;55036;52.138;5.236;2023-12-04T14:58:36;11.07;;;6.88;;
68214;SDS011;55036;52.138;5.236;2023-12-04T15:01:12;12.30;;;7.32;;
68214;SDS011;55036;52.138;5.236;2023-12-04T15:03:39;13.68;;;7.50;;
68214;SDS011;55036;52.138;5.236;2023-12-04T15:06:24;12.80;;;8.10;;
68214;SDS011;55036;52.138;5.236;2023-12-04T15:09:14;13.23;;;7.07;;
68214;SDS011;55036;52.138;5.236;2023-12-04T15:12:10;13.07;;;7.38;;
68214;SDS011;55036;52.138;5.236;2023-12-04T15:14:56;13.60;;;7.22;;
68214;SDS011;55036;52.138;5.236;2023-12-04T15:17:39;14.02;;;7.15;;
68214;SDS011;55036;52.138;5.236;2023-12-04T15:20:21;11.98;;;7.68;;
68214;SDS011;55036;52.138;5.236;2023-12-04T15:22:54;11.57;;;7.07;;
68214;SDS011;55036;52.138;5.236;2023-12-04T15:25:21;12.05;;;7.30;;
68214;SDS011;55036;52.138;5.236;2023-12-04T15:27:48;10.63;;;6.55;;
68214;SDS011;55036;52.138;5.236;2023-12-04T15:30:16;12.85;;;7.32;;